createdAt,value
2018-03-04T00:00:10.428Z,44.53
2018-03-04T00:02:38.756Z,42.60
2018-03-04T00:05:07.058Z,42.50
2018-03-04T00:07:35.393Z,43.40
2018-03-04T00:10:03.653Z,42.65
2018-03-04T00:12:31.960Z,43.10
2018-03-04T00:15:00.748Z,43.67
2018-03-04T00:17:29.102Z,41.80
2018-03-04T00:19:57.385Z,41.47
2018-03-04T00:22:37.392Z,42.47
2018-03-04T00:25:05.744Z,40.70
2018-03-04T00:27:34.040Z,41.58
2018-03-04T00:30:02.371Z,39.40
2018-03-04T00:32:30.717Z,39.65
2018-03-04T00:34:58.988Z,41.17
2018-03-04T00:37:27.293Z,40.03
2018-03-04T00:39:55.588Z,42.00
2018-03-04T00:42:23.928Z,39.80
2018-03-04T00:44:52.241Z,39.40
2018-03-04T00:47:20.500Z,40.28
2018-03-04T00:49:48.836Z,39.10
2018-03-04T00:52:17.135Z,39.90
2018-03-04T00:54:45.621Z,40.40
2018-03-04T00:57:14.185Z,39.27
2018-03-04T00:59:42.569Z,38.20
2018-03-04T01:02:11.155Z,38.88
2018-03-04T01:04:39.452Z,38.40
2018-03-04T01:07:07.723Z,37.40
2018-03-04T01:09:36.074Z,39.07
2018-03-04T01:12:04.896Z,38.95
2018-03-04T01:14:33.184Z,37.20
2018-03-04T01:17:01.466Z,38.50
2018-03-04T01:19:29.799Z,38.73
2018-03-04T01:21:58.080Z,37.60
2018-03-04T01:24:26.380Z,39.00
2018-03-04T01:26:54.661Z,39.17
2018-03-04T01:29:22.981Z,39.97
2018-03-04T01:31:51.272Z,40.40
2018-03-04T01:34:19.575Z,40.00
2018-03-04T01:36:47.924Z,39.07
2018-03-04T01:39:16.271Z,40.67
2018-03-04T01:41:44.727Z,41.30
2018-03-04T01:44:13.006Z,39.30
2018-03-04T01:46:41.332Z,39.13
2018-03-04T01:49:09.620Z,38.00
2018-03-04T01:51:49.797Z,38.97
2018-03-04T01:54:18.051Z,36.00
2018-03-04T01:56:46.356Z,38.50
2018-03-04T01:59:14.628Z,37.40
2018-03-04T02:01:42.920Z,38.83
2018-03-04T02:04:11.190Z,37.00
2018-03-04T02:06:39.512Z,37.40
2018-03-04T02:09:07.771Z,35.13
2018-03-04T02:11:36.083Z,38.10
2018-03-04T02:14:05.248Z,36.55
2018-03-04T02:16:33.595Z,37.60
2018-03-04T02:19:01.868Z,37.47
2018-03-04T02:21:30.172Z,36.70
2018-03-04T02:23:58.464Z,36.97
2018-03-04T02:26:27.397Z,37.33
2018-03-04T02:28:55.672Z,36.00
2018-03-04T02:31:24.002Z,36.03
2018-03-04T02:33:52.270Z,33.00
2018-03-04T02:36:20.580Z,35.10
2018-03-04T02:38:48.858Z,33.20
2018-03-04T02:41:17.157Z,35.60
2018-03-04T02:43:45.488Z,34.50
2018-03-04T02:46:13.840Z,33.33
2018-03-04T02:48:42.142Z,33.30
2018-03-04T02:51:10.420Z,32.08
2018-03-04T02:53:38.733Z,31.27
2018-03-04T02:56:07.124Z,30.90
2018-03-04T02:58:35.443Z,31.90
2018-03-04T03:01:03.722Z,29.07
2018-03-04T03:03:32.420Z,28.92
2018-03-04T03:06:00.701Z,28.53
2018-03-04T03:08:28.968Z,28.03
2018-03-04T03:10:57.256Z,28.73
2018-03-04T03:13:25.559Z,24.93
2018-03-04T03:15:53.830Z,25.20
2018-03-04T03:18:22.129Z,25.45
2018-03-04T03:20:50.431Z,25.83
2018-03-04T03:23:18.721Z,26.65
2018-03-04T03:25:47.025Z,25.97
2018-03-04T03:28:15.351Z,25.12
2018-03-04T03:30:43.619Z,24.57
2018-03-04T03:33:11.925Z,24.40
2018-03-04T03:35:40.613Z,24.13
2018-03-04T03:38:08.929Z,25.23
2018-03-04T03:40:37.217Z,23.90
2018-03-04T03:43:05.763Z,23.60
2018-03-04T03:45:34.859Z,25.00
2018-03-04T03:48:03.756Z,25.10
2018-03-04T03:50:32.068Z,24.37
2018-03-04T03:53:00.365Z,24.20
2018-03-04T03:55:28.725Z,25.73
2018-03-04T03:57:57.499Z,24.00
2018-03-04T04:00:25.892Z,24.25
2018-03-04T04:02:54.180Z,27.00
2018-03-04T04:05:22.528Z,25.23
2018-03-04T04:07:50.832Z,25.90
2018-03-04T04:10:19.130Z,26.90
2018-03-04T04:12:47.412Z,27.60
2018-03-04T04:15:15.723Z,24.77
2018-03-04T04:17:44.010Z,24.83
2018-03-04T04:20:12.311Z,24.47
2018-03-04T04:22:41.310Z,25.70
2018-03-04T04:25:09.772Z,24.07
2018-03-04T04:27:38.043Z,23.40
2018-03-04T04:30:06.404Z,22.90
2018-03-04T04:32:34.680Z,24.37
2018-03-04T04:35:02.979Z,23.00
2018-03-04T04:37:31.295Z,23.63
2018-03-04T04:39:59.622Z,23.37
2018-03-04T04:42:27.932Z,22.63
2018-03-04T04:44:56.243Z,22.90
2018-03-04T04:47:24.558Z,22.33
2018-03-04T04:49:52.828Z,24.00
2018-03-04T04:52:21.177Z,23.10
2018-03-04T04:54:49.475Z,21.57
2018-03-04T04:57:17.770Z,22.90
2018-03-04T04:59:46.047Z,22.57
2018-03-04T05:02:14.334Z,23.33
2018-03-04T05:04:43.216Z,21.60
2018-03-04T05:07:11.529Z,22.15
2018-03-04T05:09:39.785Z,20.70
2018-03-04T05:12:08.387Z,23.23
2018-03-04T05:14:36.667Z,22.30
2018-03-04T05:17:05.766Z,20.80
2018-03-04T05:19:34.048Z,21.37
2018-03-04T05:22:02.369Z,21.40
2018-03-04T05:24:30.827Z,20.50
2018-03-04T05:26:59.280Z,20.37
2018-03-04T05:29:27.554Z,20.00
2018-03-04T05:31:55.877Z,18.90
2018-03-04T05:34:24.159Z,18.40
2018-03-04T05:36:52.463Z,20.53
2018-03-04T05:39:20.755Z,20.90
2018-03-04T05:41:49.872Z,20.20
2018-03-04T05:44:18.194Z,18.83
2018-03-04T05:46:46.481Z,19.60
2018-03-04T05:49:15.373Z,19.93
2018-03-04T05:51:43.672Z,19.00
2018-03-04T05:54:11.980Z,19.50
2018-03-04T05:56:40.254Z,19.50
2018-03-04T05:59:08.547Z,19.48
2018-03-04T06:01:36.825Z,19.77
2018-03-04T06:04:05.383Z,21.27
2018-03-04T06:06:33.656Z,19.40
2018-03-04T06:09:02.349Z,19.48
2018-03-04T06:11:31.489Z,19.27
2018-03-04T06:13:59.780Z,18.60
2018-03-04T06:16:28.053Z,19.70
2018-03-04T06:18:56.357Z,18.57
2018-03-04T06:21:24.623Z,20.87
2018-03-04T06:23:53.110Z,20.70
2018-03-04T06:26:21.375Z,20.07
2018-03-04T06:28:49.682Z,20.30
2018-03-04T06:31:17.967Z,21.62
2018-03-04T06:33:46.271Z,21.83
2018-03-04T06:36:14.565Z,20.77
2018-03-04T06:38:42.900Z,22.07
2018-03-04T06:41:11.211Z,22.13
2018-03-04T06:43:39.499Z,22.70
2018-03-04T06:46:07.860Z,22.30
2018-03-04T06:48:36.189Z,21.47
2018-03-04T06:51:04.711Z,22.05
2018-03-04T06:53:32.999Z,22.33
2018-03-04T06:56:01.360Z,19.87
2018-03-04T06:58:29.661Z,19.37
2018-03-04T07:00:57.972Z,16.50
2018-03-04T07:03:26.244Z,18.20
2018-03-04T07:05:54.542Z,20.23
2018-03-04T07:08:22.804Z,15.82
2018-03-04T07:10:51.136Z,17.40
2018-03-04T07:13:19.415Z,18.40
2018-03-04T07:15:47.753Z,19.37
2018-03-04T07:18:16.031Z,17.55
2018-03-04T07:20:44.335Z,18.77
2018-03-04T07:23:12.627Z,19.67
2018-03-04T07:25:40.925Z,19.83
2018-03-04T07:28:09.187Z,21.10
2018-03-04T07:30:37.505Z,21.80
2018-03-04T07:33:06.003Z,19.50
2018-03-04T07:35:34.320Z,19.90
2018-03-04T07:38:02.595Z,18.58
2018-03-04T07:40:30.904Z,18.70
2018-03-04T07:42:59.220Z,20.87
2018-03-04T07:45:27.499Z,20.10
2018-03-04T07:47:55.807Z,20.47
2018-03-04T07:50:24.083Z,20.70
2018-03-04T07:52:52.394Z,20.37
2018-03-04T07:55:21.141Z,21.20
2018-03-04T07:57:49.436Z,21.17
2018-03-04T08:00:17.720Z,21.45
2018-03-04T08:02:46.129Z,21.77
2018-03-04T08:05:15.053Z,22.17
2018-03-04T08:07:43.352Z,21.67
2018-03-04T08:10:11.644Z,20.90
2018-03-04T08:12:39.945Z,20.37
2018-03-04T08:15:08.228Z,19.70
2018-03-04T08:17:36.551Z,21.50
2018-03-04T08:20:04.827Z,20.27
2018-03-04T08:22:33.160Z,21.73
2018-03-04T08:28:17.740Z,21.90
2018-03-04T08:30:47.020Z,21.13
2018-03-04T08:33:15.324Z,21.20
2018-03-04T08:35:43.629Z,22.30
2018-03-04T08:38:12.173Z,20.23
2018-03-04T08:40:40.457Z,22.00
2018-03-04T08:43:08.751Z,21.70
2018-03-04T08:45:37.155Z,23.20
2018-03-04T08:48:05.501Z,21.03
2018-03-04T08:50:33.816Z,20.97
2018-03-04T08:53:02.447Z,21.17
2018-03-04T08:55:30.759Z,21.80
2018-03-04T08:57:59.033Z,22.23
2018-03-04T09:00:27.367Z,21.20
2018-03-04T09:02:55.639Z,21.53
2018-03-04T09:05:23.962Z,21.53
2018-03-04T09:07:52.299Z,20.90
2018-03-04T09:10:20.612Z,21.58
2018-03-04T09:12:48.894Z,21.10
2018-03-04T09:15:17.183Z,21.20
2018-03-04T09:17:45.484Z,19.97
2018-03-04T09:20:13.780Z,22.98
2018-03-04T09:22:42.059Z,19.80
2018-03-04T09:25:10.371Z,21.65
2018-03-04T09:27:38.684Z,21.47
2018-03-04T09:30:07.031Z,21.17
2018-03-04T09:32:35.329Z,22.03
2018-03-04T09:35:03.743Z,21.50
2018-03-04T09:37:32.057Z,21.63
2018-03-04T09:40:00.344Z,20.53
2018-03-04T09:42:28.637Z,20.10
2018-03-04T09:44:56.956Z,21.90
2018-03-04T09:47:25.268Z,22.60
2018-03-04T09:49:53.583Z,19.60
2018-03-04T09:52:21.975Z,21.03
2018-03-04T09:54:50.209Z,20.67
2018-03-04T09:57:18.501Z,18.43
2018-03-04T09:59:46.806Z,19.50
2018-03-04T10:02:15.107Z,19.33
2018-03-04T10:04:43.381Z,19.33
2018-03-04T10:07:11.739Z,18.40
2018-03-04T10:09:40.006Z,19.50
2018-03-04T10:12:08.324Z,18.60
2018-03-04T10:14:36.587Z,20.17
2018-03-04T10:17:05.701Z,20.00
2018-03-04T10:19:34.883Z,19.67
2018-03-04T10:22:04.243Z,20.02
2018-03-04T10:24:32.508Z,19.10
2018-03-04T10:27:00.868Z,18.55
2018-03-04T10:29:29.146Z,20.83
2018-03-04T10:31:57.439Z,18.97
2018-03-04T10:34:26.376Z,18.60
2018-03-04T10:36:54.655Z,19.40
2018-03-04T10:39:22.949Z,18.37
2018-03-04T10:41:51.304Z,18.57
2018-03-04T10:44:19.561Z,16.92
2018-03-04T10:46:48.348Z,17.73
2018-03-04T10:49:16.620Z,19.17
2018-03-04T10:51:44.917Z,16.80
2018-03-04T10:54:13.253Z,16.30
2018-03-04T10:56:41.549Z,15.60
2018-03-04T10:59:09.953Z,16.23
2018-03-04T11:01:44.681Z,17.10
2018-03-04T11:04:12.972Z,16.50
2018-03-04T11:06:41.262Z,16.50
2018-03-04T11:09:09.792Z,16.83
2018-03-04T11:11:38.902Z,16.77
2018-03-04T11:14:07.225Z,16.87
2018-03-04T11:16:35.512Z,16.65
2018-03-04T11:19:04.584Z,18.00
2018-03-04T11:21:32.897Z,18.00
2018-03-04T11:24:01.196Z,19.40
2018-03-04T11:26:29.495Z,19.03
2018-03-04T11:28:57.921Z,18.70
2018-03-04T11:31:26.183Z,18.45
2018-03-04T11:33:54.481Z,17.97
2018-03-04T11:36:22.752Z,18.15
2018-03-04T11:38:51.104Z,18.40
2018-03-04T11:41:19.436Z,16.08
2018-03-04T11:43:47.749Z,16.63
2018-03-04T11:46:16.056Z,17.13
2018-03-04T11:48:44.341Z,16.62
2018-03-04T11:51:12.647Z,17.13
2018-03-04T11:53:40.944Z,17.30
2018-03-04T11:56:09.228Z,15.77
2018-03-04T11:58:37.550Z,16.87
2018-03-04T12:01:06.585Z,17.30
2018-03-04T12:03:34.892Z,16.93
2018-03-04T12:06:03.193Z,16.90
2018-03-04T12:08:31.479Z,16.23
2018-03-04T12:10:59.785Z,17.23
2018-03-04T12:13:28.071Z,14.87
2018-03-04T12:15:56.362Z,18.20
2018-03-04T12:18:24.660Z,14.27
2018-03-04T12:20:53.811Z,15.77
2018-03-04T12:23:22.130Z,16.27
2018-03-04T12:25:50.467Z,16.47
2018-03-04T12:28:18.774Z,15.40
2018-03-04T12:30:47.127Z,17.33
2018-03-04T12:33:15.412Z,16.67
2018-03-04T12:35:43.761Z,17.10
2018-03-04T12:38:12.312Z,16.57
2018-03-04T12:40:41.539Z,16.80
2018-03-04T12:43:09.866Z,16.92
2018-03-04T12:45:38.148Z,15.95
2018-03-04T12:48:06.469Z,15.80
2018-03-04T12:50:34.756Z,15.13
2018-03-04T12:53:03.064Z,14.97
2018-03-04T12:55:31.394Z,15.60
2018-03-04T12:57:59.678Z,15.10
2018-03-04T13:00:27.965Z,14.57
2018-03-04T13:02:56.259Z,14.13
2018-03-04T13:05:24.595Z,14.73
2018-03-04T13:07:52.878Z,14.83
2018-03-04T13:10:21.157Z,13.80
2018-03-04T13:12:49.528Z,14.30
2018-03-04T13:15:18.727Z,13.00
2018-03-04T13:17:47.051Z,11.87
2018-03-04T13:20:15.441Z,11.87
2018-03-04T13:22:46.318Z,12.40
2018-03-04T13:25:14.644Z,12.30
2018-03-04T13:27:42.980Z,9.43
2018-03-04T13:30:11.304Z,8.43
2018-03-04T13:32:40.582Z,8.37
2018-03-04T13:35:08.850Z,8.00
2018-03-04T13:37:37.174Z,5.60
2018-03-04T13:40:05.455Z,6.87
2018-03-04T13:42:33.759Z,6.90
2018-03-04T13:45:02.016Z,5.00
2018-03-04T13:47:30.293Z,3.70
2018-03-04T13:49:58.576Z,4.60
2018-03-04T13:52:26.848Z,3.20
2018-03-04T13:54:55.135Z,4.00
2018-03-04T13:57:23.401Z,3.60
2018-03-04T13:59:51.716Z,3.50
2018-03-04T14:02:19.963Z,3.43
2018-03-04T14:04:48.244Z,4.10
2018-03-04T14:07:16.558Z,4.30
2018-03-04T14:09:44.881Z,4.10
2018-03-04T14:12:13.324Z,4.37
2018-03-04T14:14:41.623Z,5.60
2018-03-04T14:17:09.910Z,6.20
2018-03-04T14:19:38.217Z,6.60
2018-03-04T14:22:06.497Z,7.20
2018-03-04T14:24:34.787Z,8.27
2018-03-04T14:27:03.392Z,8.38
2018-03-04T14:29:31.719Z,8.93
2018-03-04T14:32:00.151Z,8.87
2018-03-04T14:34:28.454Z,9.10
2018-03-04T14:36:56.824Z,9.63
2018-03-04T14:39:25.753Z,11.20
2018-03-04T14:41:53.972Z,9.65
2018-03-04T14:44:22.295Z,11.00
2018-03-04T14:46:50.611Z,10.37
2018-03-04T14:49:18.943Z,10.20
2018-03-04T14:51:47.263Z,11.47
2018-03-04T14:54:15.576Z,10.93
2018-03-04T14:56:43.888Z,10.80
2018-03-04T14:59:12.234Z,11.70
2018-03-04T15:01:40.553Z,12.53
2018-03-04T15:04:08.844Z,13.77
2018-03-04T15:06:37.191Z,14.70
2018-03-04T15:09:05.499Z,11.27
2018-03-04T15:11:33.854Z,12.88
2018-03-04T15:14:02.197Z,12.73
2018-03-04T15:16:30.537Z,12.80
2018-03-04T15:18:58.866Z,17.00
2018-03-04T15:21:27.197Z,23.70
2018-03-04T15:23:55.689Z,24.23
2018-03-04T15:26:23.969Z,25.23
2018-03-04T15:28:52.269Z,25.47
2018-03-04T15:31:20.608Z,26.77
2018-03-04T15:33:48.875Z,24.80
2018-03-04T15:36:17.251Z,26.02
2018-03-04T15:38:45.531Z,27.87
2018-03-04T15:41:13.856Z,26.08
2018-03-04T15:43:42.213Z,25.23
2018-03-04T15:46:10.544Z,25.95
2018-03-04T15:48:38.849Z,26.50
2018-03-04T15:51:07.139Z,27.60
2018-03-04T15:53:35.443Z,27.30
2018-03-04T15:56:04.948Z,27.30
2018-03-04T15:58:33.378Z,26.30
2018-03-04T16:01:01.654Z,29.50
2018-03-04T16:03:30.000Z,27.75
2018-03-04T16:05:58.348Z,27.40
2018-03-04T16:08:26.696Z,27.70
2018-03-04T16:10:54.985Z,28.40
2018-03-04T16:13:23.361Z,29.10
2018-03-04T16:15:51.654Z,29.13
2018-03-04T16:18:19.990Z,29.40
2018-03-04T16:20:48.288Z,30.77
2018-03-04T16:23:16.613Z,30.50
2018-03-04T16:25:44.918Z,29.30
2018-03-04T16:28:13.226Z,31.55
2018-03-04T16:30:41.548Z,30.87
2018-03-04T16:33:09.896Z,33.15
2018-03-04T16:35:38.235Z,32.33
2018-03-04T16:38:06.632Z,34.60
2018-03-04T16:40:35.756Z,33.35
2018-03-04T16:43:04.777Z,30.75
2018-03-04T16:45:33.688Z,26.93
2018-03-04T16:48:01.997Z,29.80
2018-03-04T16:50:30.316Z,28.97
2018-03-04T16:52:58.677Z,29.53
2018-03-04T16:55:26.975Z,29.07
2018-03-04T16:57:55.288Z,30.53
2018-03-04T17:00:23.624Z,29.80
2018-03-04T17:02:51.919Z,27.70
2018-03-04T17:05:20.238Z,28.80
2018-03-04T17:07:48.522Z,29.27
2018-03-04T17:10:16.812Z,28.83
2018-03-04T17:12:45.087Z,28.80
2018-03-04T17:15:13.405Z,28.90
2018-03-04T17:17:41.696Z,29.70
2018-03-04T17:20:10.008Z,29.63
2018-03-04T17:22:38.293Z,29.47
2018-03-04T17:25:06.653Z,29.80
2018-03-04T17:27:34.953Z,30.97
2018-03-04T17:30:03.268Z,28.43
2018-03-04T17:32:31.586Z,29.93
2018-03-04T17:34:59.894Z,30.80
2018-03-04T17:37:28.215Z,30.50
2018-03-04T17:39:56.515Z,29.50
2018-03-04T17:42:24.815Z,29.80
2018-03-04T17:44:53.172Z,28.80
2018-03-04T17:47:21.448Z,29.27
2018-03-04T17:49:49.756Z,29.30
2018-03-04T17:52:18.166Z,28.30
2018-03-04T17:54:46.461Z,28.13
2018-03-04T17:57:14.768Z,29.43
2018-03-04T17:59:43.065Z,29.30
2018-03-04T18:02:11.368Z,29.03
2018-03-04T18:04:39.688Z,31.13
2018-03-04T18:07:07.995Z,30.40
2018-03-04T18:09:36.312Z,29.97
2018-03-04T18:12:04.601Z,31.33
2018-03-04T18:14:32.920Z,27.67
2018-03-04T18:17:01.240Z,25.50
2018-03-04T18:19:29.543Z,27.67
2018-03-04T18:21:57.860Z,29.80
2018-03-04T18:24:26.161Z,26.67
2018-03-04T18:26:54.450Z,32.13
2018-03-04T18:29:22.809Z,28.83
2018-03-04T18:31:51.105Z,25.00
2018-03-04T18:34:19.492Z,25.27
2018-03-04T18:36:47.753Z,23.37
2018-03-04T18:39:16.014Z,23.47
2018-03-04T18:41:44.313Z,23.33
2018-03-04T18:44:12.595Z,24.33
2018-03-04T18:46:40.919Z,24.20
2018-03-04T18:49:09.213Z,21.50
2018-03-04T18:51:37.509Z,20.53
2018-03-04T18:54:05.825Z,26.47
2018-03-04T18:56:34.933Z,25.70
2018-03-04T18:59:03.329Z,26.23
2018-03-04T19:01:31.599Z,29.03
2018-03-04T19:03:59.897Z,25.80
2018-03-04T19:06:28.183Z,22.80
2018-03-04T19:08:56.518Z,23.37
2018-03-04T19:11:24.824Z,22.33
2018-03-04T19:13:53.128Z,20.90
2018-03-04T19:16:21.405Z,27.53
2018-03-04T19:18:49.711Z,28.87
2018-03-04T19:21:18.003Z,27.83
2018-03-04T19:23:46.503Z,25.67
2018-03-04T19:26:14.800Z,24.70
2018-03-04T19:28:43.141Z,24.07
2018-03-04T19:31:11.427Z,23.17
2018-03-04T19:33:39.728Z,24.00
2018-03-04T19:36:08.003Z,24.70
2018-03-04T19:38:37.104Z,24.13
2018-03-04T19:41:05.390Z,24.70
2018-03-04T19:43:33.754Z,21.90
2018-03-04T19:46:02.083Z,24.40
2018-03-04T19:48:30.445Z,24.80
2018-03-04T19:50:58.807Z,24.47
2018-03-04T19:53:27.141Z,23.20
2018-03-04T19:55:55.517Z,24.57
2018-03-04T19:58:23.986Z,25.23
2018-03-04T20:00:52.374Z,25.83
2018-03-04T20:03:20.729Z,22.80
2018-03-04T20:05:49.128Z,23.13
2018-03-04T20:08:17.413Z,27.30
2018-03-04T20:10:45.774Z,26.70
2018-03-04T20:13:14.429Z,24.87
2018-03-04T20:15:42.987Z,24.40
2018-03-04T20:18:11.614Z,24.77
2018-03-04T20:20:39.952Z,24.83
2018-03-04T20:23:08.249Z,17.97
2018-03-04T20:25:36.584Z,17.40
2018-03-04T20:28:04.875Z,7.60
2018-03-04T20:30:33.308Z,8.37
2018-03-04T20:33:01.593Z,6.07
2018-03-04T20:35:29.921Z,6.30
2018-03-04T20:37:58.742Z,5.57
2018-03-04T20:40:27.020Z,6.33
2018-03-04T20:42:55.378Z,5.73
2018-03-04T20:45:23.628Z,5.30
2018-03-04T20:47:51.946Z,5.83
2018-03-04T20:50:20.249Z,5.80
2018-03-04T20:52:51.161Z,5.70
2018-03-04T20:55:19.422Z,5.20
2018-03-04T20:57:47.725Z,4.73
2018-03-04T21:00:16.016Z,4.70
2018-03-04T21:02:44.405Z,4.93
2018-03-04T21:05:12.685Z,5.33
2018-03-04T21:07:40.976Z,4.30
2018-03-04T21:10:09.298Z,4.53
2018-03-04T21:12:37.617Z,4.00
2018-03-04T21:15:06.876Z,7.17
2018-03-04T21:17:35.175Z,7.93
2018-03-04T21:20:03.770Z,4.70
2018-03-04T21:22:32.061Z,4.80
2018-03-04T21:25:00.339Z,4.23
2018-03-04T21:27:28.665Z,5.73
2018-03-04T21:29:58.490Z,5.30
2018-03-04T21:32:26.782Z,4.73
2018-03-04T21:34:55.066Z,4.40
2018-03-04T21:37:23.342Z,3.90
2018-03-04T21:39:51.607Z,5.57
2018-03-04T21:42:19.907Z,5.20
2018-03-04T21:44:48.168Z,3.87
2018-03-04T21:47:17.086Z,3.03
2018-03-04T21:49:45.787Z,3.40
2018-03-04T21:52:14.096Z,2.93
2018-03-04T21:54:42.457Z,2.27
2018-03-04T21:57:10.769Z,2.80
2018-03-04T21:59:39.133Z,2.00
2018-03-04T22:02:07.430Z,3.23
2018-03-04T22:04:35.752Z,2.50
2018-03-04T22:07:04.120Z,3.20
2018-03-04T22:09:32.389Z,3.03
2018-03-04T22:12:00.646Z,4.07
2018-03-04T22:14:28.927Z,4.43
2018-03-04T22:16:57.207Z,3.80
2018-03-04T22:19:25.545Z,4.10
2018-03-04T22:21:53.754Z,4.40
2018-03-04T22:24:22.117Z,4.70
2018-03-04T22:26:50.387Z,4.47
2018-03-04T22:29:18.784Z,3.93
2018-03-04T22:31:47.127Z,3.63
2018-03-04T22:34:15.371Z,4.60
2018-03-04T22:36:43.691Z,4.30
2018-03-04T22:39:12.077Z,4.30
2018-03-04T22:41:40.359Z,4.70
2018-03-04T22:44:08.654Z,4.20
2018-03-04T22:46:36.949Z,4.93
2018-03-04T22:49:05.779Z,4.10
2018-03-04T22:51:34.116Z,5.97
2018-03-04T22:54:02.376Z,4.13
2018-03-04T22:56:30.678Z,4.53
2018-03-04T22:58:58.961Z,4.95
2018-03-04T23:01:27.751Z,4.60
2018-03-04T23:03:56.143Z,3.90
2018-03-04T23:06:24.412Z,4.90
2018-03-04T23:08:52.697Z,5.10
2018-03-04T23:11:21.077Z,4.45
2018-03-04T23:13:49.909Z,3.63
2018-03-04T23:16:18.223Z,3.73
2018-03-04T23:18:53.432Z,4.17
2018-03-04T23:21:21.698Z,4.00
2018-03-04T23:23:49.962Z,4.40
2018-03-04T23:26:18.260Z,3.90
2018-03-04T23:28:46.505Z,4.40
2018-03-04T23:31:14.805Z,4.50
2018-03-04T23:33:43.083Z,3.67
2018-03-04T23:36:11.369Z,3.70
2018-03-04T23:38:39.647Z,4.07
2018-03-04T23:41:07.924Z,4.53
2018-03-04T23:43:36.195Z,4.32
2018-03-04T23:46:04.479Z,4.10
2018-03-04T23:48:32.771Z,3.87
2018-03-04T23:51:01.071Z,4.70
2018-03-04T23:53:29.358Z,4.20
2018-03-04T23:55:57.611Z,4.13
2018-03-04T23:58:26.559Z,3.80
